Terminal Aerodrome Forecast
Issued by NWS Twin Cities, MN

Home | Current Version | Previous Version | Text Only | Print | Product List | Glossary Off
Versions: 1 2 3 4 5 6 7 8 9 10 11 12 13 14 15 16 17 18 19 20 21 22 23 24 25 26

000
FTUS43 KMPX 192300
TAFMSP
TAF
KMSP 192339Z 2000/2106 35004KT P6SM BKN050 OVC090
      TEMPO 2000/2003 -SHRA
     FM200300 19006KT P6SM SCT060 BKN100
     FM200800 27006KT P6SM FEW030 SCT100 BKN250
     FM201400 31010KT P6SM SCT035 BKN250
     FM202300 29012G18KT P6SM BKN045 OVC090
      TEMPO 2023/2102 2SM TSRA OVC030CB=

USA.gov is the U.S. government's official web portal to all federal, state and local government web resources and services.